createdAt,value
2018-05-10T00:00:32.199Z,1006.96
2018-05-10T00:01:53.754Z,1006.95
2018-05-10T00:03:15.868Z,1006.94
2018-05-10T00:04:37.947Z,1006.96
2018-05-10T00:05:59.745Z,1006.93
2018-05-10T00:07:21.645Z,1006.96
2018-05-10T00:08:43.504Z,1006.92
2018-05-10T00:10:05.039Z,1006.93
2018-05-10T00:11:26.599Z,1006.97
2018-05-10T00:12:48.130Z,1006.93
2018-05-10T00:14:10.219Z,1006.91
2018-05-10T00:15:32.039Z,1006.88
2018-05-10T00:16:54.103Z,1006.89
2018-05-10T00:18:15.911Z,1006.9
2018-05-10T00:19:37.719Z,1006.86
2018-05-10T00:20:59.777Z,1006.88
2018-05-10T00:22:21.582Z,1006.84
2018-05-10T00:23:43.126Z,1006.85
2018-05-10T00:25:04.925Z,1006.85
2018-05-10T00:26:27.013Z,1006.82
2018-05-10T00:27:49.177Z,1006.84
2018-05-10T00:29:11.264Z,1006.84
2018-05-10T00:30:33.068Z,1006.8
2018-05-10T00:31:54.610Z,1006.81
2018-05-10T00:33:16.696Z,1006.78
2018-05-10T00:34:38.765Z,1006.76
2018-05-10T00:36:00.574Z,1006.82
2018-05-10T00:37:22.381Z,1006.78
2018-05-10T00:38:44.441Z,1006.73
2018-05-10T00:40:06.542Z,1006.72
2018-05-10T00:41:28.627Z,1006.71
2018-05-10T00:42:50.429Z,1006.72
2018-05-10T00:44:12.479Z,1006.71
2018-05-10T00:45:34.011Z,1006.64
2018-05-10T00:46:55.807Z,1006.65
2018-05-10T00:48:17.877Z,1006.64
2018-05-10T00:49:39.915Z,1006.64
2018-05-10T00:51:01.459Z,1006.66
2018-05-10T00:52:23.284Z,1006.66
2018-05-10T00:53:45.102Z,1006.64
2018-05-10T00:55:06.927Z,1006.62
2018-05-10T00:56:29.008Z,1006.66
2018-05-10T00:57:50.808Z,1006.67
2018-05-10T00:59:12.891Z,1006.62
2018-05-10T01:00:34.965Z,1006.65
2018-05-10T01:01:56.776Z,1006.62
2018-05-10T01:03:18.313Z,1006.59
2018-05-10T01:04:40.115Z,1006.61
2018-05-10T01:06:02.177Z,1006.63
2018-05-10T01:07:24.254Z,1006.61
2018-05-10T01:08:45.797Z,1006.59
2018-05-10T01:10:07.866Z,1006.61
2018-05-10T01:11:29.397Z,1006.59
2018-05-10T01:12:50.660Z,1006.57
2018-05-10T01:14:12.466Z,1006.57
2018-05-10T01:15:34.541Z,1006.57
2018-05-10T01:16:56.082Z,1006.57
2018-05-10T01:18:18.155Z,1006.58
2018-05-10T01:19:39.711Z,1006.6
2018-05-10T01:21:01.523Z,1006.58
2018-05-10T01:22:23.590Z,1006.59
2018-05-10T01:23:44.857Z,1006.58
2018-05-10T01:25:06.642Z,1006.59
2018-05-10T01:26:28.442Z,1006.59
2018-05-10T01:27:50.598Z,1006.58
2018-05-10T01:29:12.146Z,1006.53
2018-05-10T01:30:34.203Z,1006.55
2018-05-10T01:31:56.288Z,1006.49
2018-05-10T01:33:18.085Z,1006.5
2018-05-10T01:34:40.151Z,1006.43
2018-05-10T01:36:02.216Z,1006.48
2018-05-10T01:37:23.764Z,1006.42
2018-05-10T01:38:45.560Z,1006.4
2018-05-10T01:40:07.616Z,1006.36
2018-05-10T01:41:29.462Z,1006.33
2018-05-10T01:42:51.007Z,1006.32
2018-05-10T01:44:12.813Z,1006.4
2018-05-10T01:45:34.367Z,1006.38
2018-05-10T01:46:55.914Z,1006.39
2018-05-10T01:48:17.455Z,1006.42
2018-05-10T01:49:39.507Z,1006.32
2018-05-10T01:51:01.305Z,1006.33
2018-05-10T01:52:23.364Z,1006.31
2018-05-10T01:53:44.644Z,1006.29
2018-05-10T01:55:06.448Z,1006.34
2018-05-10T01:56:28.255Z,1006.33
2018-05-10T01:57:50.345Z,1006.33
2018-05-10T01:59:12.150Z,1006.25
2018-05-10T02:00:34.219Z,1006.25
2018-05-10T02:01:56.296Z,1006.24
2018-05-10T02:03:17.836Z,1006.28
2018-05-10T02:04:39.953Z,1006.22
2018-05-10T02:06:02.038Z,1006.32
2018-05-10T02:07:24.092Z,1006.29
2018-05-10T02:08:46.175Z,1006.29
2018-05-10T02:10:07.961Z,1006.32
2018-05-10T02:11:29.752Z,1006.29
2018-05-10T02:12:51.305Z,1006.3
2018-05-10T02:14:13.101Z,1006.28
2018-05-10T02:15:34.646Z,1006.28
2018-05-10T02:16:56.716Z,1006.25
2018-05-10T02:18:18.252Z,1006.25
2018-05-10T02:19:40.394Z,1006.22
2018-05-10T02:21:02.446Z,1006.24
2018-05-10T02:22:23.988Z,1006.29
2018-05-10T02:23:45.788Z,1006.28
2018-05-10T02:25:07.848Z,1006.23
2018-05-10T02:26:29.903Z,1006.2
2018-05-10T02:27:51.444Z,1006.18
2018-05-10T02:29:13.509Z,1006.2
2018-05-10T02:30:35.045Z,1006.17
2018-05-10T02:31:56.585Z,1006.13
2018-05-10T02:33:18.655Z,1006.11
2018-05-10T02:34:40.465Z,1006.13
2018-05-10T02:36:02.540Z,1006.17
2018-05-10T02:37:24.681Z,1006.21
2018-05-10T02:38:46.222Z,1006.25
2018-05-10T02:40:08.050Z,1006.21
2018-05-10T02:41:30.124Z,1006.24
2018-05-10T02:42:52.196Z,1006.2
2018-05-10T02:44:13.739Z,1006.28
2018-05-10T02:45:35.271Z,1006.31
2018-05-10T02:46:57.323Z,1006.26
2018-05-10T02:48:19.387Z,1006.27
2018-05-10T02:49:41.201Z,1006.22
2018-05-10T02:51:03.007Z,1006.21
2018-05-10T02:52:24.546Z,1006.22
2018-05-10T02:53:46.350Z,1006.26
2018-05-10T02:55:08.156Z,1006.28
2018-05-10T02:56:30.253Z,1006.2
2018-05-10T02:57:52.318Z,1006.16
2018-05-10T02:59:14.393Z,1006.14
2018-05-10T03:00:36.223Z,1006.15
2018-05-10T03:01:57.764Z,1006.13
2018-05-10T03:03:19.569Z,1006.18
2018-05-10T03:04:41.378Z,1006.24
2018-05-10T03:06:03.203Z,1006.29
2018-05-10T03:07:25.263Z,1006.27
2018-05-10T03:08:47.064Z,1006.29
2018-05-10T03:10:09.135Z,1006.28
2018-05-10T03:11:31.221Z,1006.28
2018-05-10T03:12:52.758Z,1006.34
2018-05-10T03:14:14.326Z,1006.38
2018-05-10T03:15:36.385Z,1006.3
2018-05-10T03:16:58.477Z,1006.34
2018-05-10T03:18:20.529Z,1006.29
2018-05-10T03:19:42.326Z,1006.27
2018-05-10T03:21:03.872Z,1006.27
2018-05-10T03:22:25.675Z,1006.24
2018-05-10T03:23:47.742Z,1006.23
2018-05-10T03:25:09.532Z,1006.17
2018-05-10T03:26:31.590Z,1006.16
2018-05-10T03:27:53.226Z,1006.2
2018-05-10T03:29:15.053Z,1006.19
2018-05-10T03:30:37.125Z,1006.18
2018-05-10T03:31:59.189Z,1006.19
2018-05-10T03:33:21.305Z,1006.25
2018-05-10T03:34:43.469Z,1006.27
2018-05-10T03:36:05.272Z,1006.26
2018-05-10T03:37:26.544Z,1006.25
2018-05-10T03:38:48.077Z,1006.2
2018-05-10T03:40:09.609Z,1006.23
2018-05-10T03:41:31.952Z,1006.24
2018-05-10T03:42:54.014Z,1006.23
2018-05-10T03:44:15.802Z,1006.2
2018-05-10T03:45:37.850Z,1006.18
2018-05-10T03:46:59.666Z,1006.12
2018-05-10T03:48:21.735Z,1006.08
2018-05-10T03:49:43.802Z,1006.09
2018-05-10T03:51:05.591Z,1006.15
2018-05-10T03:52:27.114Z,1006.05
2018-05-10T03:53:48.920Z,1006.03
2018-05-10T03:55:11.018Z,1006.03
2018-05-10T03:56:32.813Z,1006.01
2018-05-10T03:57:54.885Z,1006.03
2018-05-10T03:59:16.760Z,1006
2018-05-10T04:00:38.288Z,1006
2018-05-10T04:02:00.341Z,1005.98
2018-05-10T04:03:21.875Z,1006.02
2018-05-10T04:04:43.427Z,1006.02
2018-05-10T04:06:05.270Z,1006.03
2018-05-10T04:07:26.907Z,1006.06
2018-05-10T04:08:48.960Z,1006.04
2018-05-10T04:10:10.523Z,1006.01
2018-05-10T04:11:32.346Z,1005.99
2018-05-10T04:12:54.417Z,1005.95
2018-05-10T04:14:16.481Z,1006
2018-05-10T04:15:38.147Z,1006.05
2018-05-10T04:17:00.217Z,1006.02
2018-05-10T04:18:22.017Z,1006.06
2018-05-10T04:19:44.085Z,1006.06
2018-05-10T04:21:05.901Z,1006.07
2018-05-10T04:22:27.969Z,1006.09
2018-05-10T04:23:49.788Z,1006.12
2018-05-10T04:25:11.583Z,1006.16
2018-05-10T04:26:33.108Z,1006.13
2018-05-10T04:27:54.683Z,1006.2
2018-05-10T04:29:16.491Z,1006.22
2018-05-10T04:30:38.542Z,1006.24
2018-05-10T04:32:00.354Z,1006.26
2018-05-10T04:33:22.426Z,1006.24
2018-05-10T04:34:44.495Z,1006.24
2018-05-10T04:36:06.305Z,1006.28
2018-05-10T04:37:28.111Z,1006.26
2018-05-10T04:38:50.179Z,1006.26
2018-05-10T04:40:11.992Z,1006.26
2018-05-10T04:41:33.781Z,1006.3
2018-05-10T04:42:55.853Z,1006.34
2018-05-10T04:44:17.672Z,1006.38
2018-05-10T04:45:39.758Z,1006.4
2018-05-10T04:47:01.561Z,1006.32
2018-05-10T04:48:23.618Z,1006.38
2018-05-10T04:49:45.679Z,1006.4
2018-05-10T04:51:07.214Z,1006.38
2018-05-10T04:52:29.279Z,1006.41
2018-05-10T04:53:51.085Z,1006.4
2018-05-10T04:55:13.247Z,1006.41
2018-05-10T04:56:35.059Z,1006.36
2018-05-10T04:57:57.115Z,1006.36
2018-05-10T04:59:18.913Z,1006.3
2018-05-10T05:00:40.711Z,1006.32
2018-05-10T05:02:02.787Z,1006.3
2018-05-10T05:03:24.868Z,1006.35
2018-05-10T05:04:47.054Z,1006.34
2018-05-10T05:06:08.862Z,1006.36
2018-05-10T05:07:30.935Z,1006.43
2018-05-10T05:08:52.782Z,1006.54
2018-05-10T05:10:14.767Z,1006.66
2018-05-10T05:11:36.564Z,1006.68
2018-05-10T05:12:58.801Z,1006.65
2018-05-10T05:14:20.606Z,1006.66
2018-05-10T05:15:42.711Z,1006.68
2018-05-10T05:17:04.786Z,1006.61
2018-05-10T05:18:26.320Z,1006.66
2018-05-10T05:19:48.122Z,1006.68
2018-05-10T05:21:10.178Z,1006.64
2018-05-10T05:22:32.151Z,1006.6
2018-05-10T05:23:53.961Z,1006.58
2018-05-10T05:25:15.515Z,1006.61
2018-05-10T05:26:37.065Z,1006.57
2018-05-10T05:27:58.927Z,1006.61
2018-05-10T05:29:20.738Z,1006.67
2018-05-10T05:30:42.819Z,1006.66
2018-05-10T05:32:04.899Z,1006.67
2018-05-10T05:33:26.723Z,1006.72
2018-05-10T05:34:48.272Z,1006.71
2018-05-10T05:36:10.102Z,1006.71
2018-05-10T05:37:31.954Z,1006.67
2018-05-10T05:38:54.026Z,1006.65
2018-05-10T05:40:15.577Z,1006.72
2018-05-10T05:41:37.389Z,1006.72
2018-05-10T05:42:59.477Z,1006.71
2018-05-10T05:44:21.836Z,1006.68
2018-05-10T05:45:43.647Z,1006.69
2018-05-10T05:47:05.750Z,1006.75
2018-05-10T05:48:27.845Z,1006.74
2018-05-10T05:49:49.930Z,1006.78
2018-05-10T05:51:12.087Z,1006.8
2018-05-10T05:52:33.655Z,1006.83
2018-05-10T05:53:55.472Z,1006.86
2018-05-10T05:55:17.532Z,1006.88
2018-05-10T05:56:39.609Z,1006.88
2018-05-10T05:58:01.425Z,1006.93
2018-05-10T05:59:22.979Z,1006.98
2018-05-10T06:00:45.147Z,1006.99
2018-05-10T06:02:07.043Z,1007.01
2018-05-10T06:03:29.146Z,1007.06
2018-05-10T06:04:50.967Z,1007.06
2018-05-10T06:06:12.801Z,1007.12
2018-05-10T06:07:34.888Z,1007.11
2018-05-10T06:08:56.969Z,1007.11
2018-05-10T06:10:19.068Z,1007.06
2018-05-10T06:11:40.875Z,1007.08
2018-05-10T06:13:02.772Z,1007.09
2018-05-10T06:14:24.600Z,1007.09
2018-05-10T06:15:46.771Z,1007.13
2018-05-10T06:17:09.396Z,1007.13
2018-05-10T06:18:31.478Z,1007.11
2018-05-10T06:19:53.300Z,1007.14
2018-05-10T06:21:15.381Z,1007.13
2018-05-10T06:22:36.946Z,1007.13
2018-05-10T06:23:59.029Z,1007.13
2018-05-10T06:25:20.857Z,1007.2
2018-05-10T06:26:42.931Z,1007.24
2018-05-10T06:28:04.767Z,1007.24
2018-05-10T06:29:26.866Z,1007.26
2018-05-10T06:30:48.972Z,1007.27
2018-05-10T06:32:11.071Z,1007.23
2018-05-10T06:33:32.890Z,1007.29
2018-05-10T06:34:54.975Z,1007.27
2018-05-10T06:36:17.066Z,1007.28
2018-05-10T06:37:39.231Z,1007.33
2018-05-10T06:39:00.558Z,1007.34
2018-05-10T06:40:22.122Z,1007.36
2018-05-10T06:41:43.984Z,1007.31
2018-05-10T06:43:05.558Z,1007.35
2018-05-10T06:44:27.392Z,1007.31
2018-05-10T06:45:49.209Z,1007.35
2018-05-10T06:47:10.771Z,1007.38
2018-05-10T06:48:32.857Z,1007.15
2018-05-10T06:49:54.707Z,1007.39
2018-05-10T06:51:16.301Z,1007.35
2018-05-10T06:52:38.129Z,1007.44
2018-05-10T06:53:59.964Z,1007.44
2018-05-10T06:55:21.553Z,1007.46
2018-05-10T06:56:43.371Z,1007.48
2018-05-10T06:58:04.951Z,1007.45
2018-05-10T06:59:26.760Z,1007.46
2018-05-10T07:00:48.871Z,1007.37
2018-05-10T07:02:10.974Z,1007.26
2018-05-10T07:03:32.796Z,1007.16
2018-05-10T07:04:54.879Z,1007.13
2018-05-10T07:06:16.734Z,1007.1
2018-05-10T07:07:38.824Z,1007.16
2018-05-10T07:09:00.915Z,1007.12
2018-05-10T07:10:22.904Z,1007.17
2018-05-10T07:11:44.731Z,1007.17
2018-05-10T07:13:06.553Z,1007.15
2018-05-10T07:14:27.856Z,1007.12
2018-05-10T07:15:49.682Z,1007.1
2018-05-10T07:17:11.777Z,1007.07
2018-05-10T07:18:33.894Z,1007.14
2018-05-10T07:19:55.978Z,1007.22
2018-05-10T07:21:18.177Z,1007.24
2018-05-10T07:22:40.259Z,1007.31
2018-05-10T07:24:02.092Z,1007.27
2018-05-10T07:25:24.246Z,1007.33
2018-05-10T07:26:46.208Z,1007.33
2018-05-10T07:28:08.061Z,1007.31
2018-05-10T07:29:29.927Z,1007.37
2018-05-10T07:30:52.028Z,1007.31
2018-05-10T07:32:13.868Z,1007.27
2018-05-10T07:33:35.951Z,1007.24
2018-05-10T07:34:57.763Z,1007.32
2018-05-10T07:36:19.861Z,1007.33
2018-05-10T07:37:41.426Z,1007.4
2018-05-10T07:39:03.256Z,1007.3
2018-05-10T07:40:25.372Z,1007.29
2018-05-10T07:41:47.642Z,1007.3
2018-05-10T07:43:10.201Z,1007.28
2018-05-10T07:44:32.740Z,1007.25
2018-05-10T07:45:55.014Z,1007.3
2018-05-10T07:47:17.588Z,1007.3
2018-05-10T07:48:39.082Z,1007.26
2018-05-10T07:50:00.912Z,1007.26
2018-05-10T07:51:22.984Z,1007.29
2018-05-10T07:52:44.796Z,1007.26
2018-05-10T07:54:06.352Z,1007.29
2018-05-10T07:55:28.444Z,1007.31
2018-05-10T07:56:50.532Z,1007.35
2018-05-10T07:58:12.643Z,1007.37
2018-05-10T07:59:34.475Z,1007.39
2018-05-10T08:00:56.307Z,1007.45
2018-05-10T08:02:18.512Z,1007.47
2018-05-10T08:03:40.814Z,1007.53
2018-05-10T08:05:02.920Z,1007.52
2018-05-10T08:06:25.011Z,1007.46
2018-05-10T08:07:46.846Z,1007.5
2018-05-10T08:09:08.689Z,1007.53
2018-05-10T08:10:30.266Z,1007.57
2018-05-10T08:11:52.093Z,1007.51
2018-05-10T08:13:14.184Z,1007.53
2018-05-10T08:14:36.286Z,1007.57
2018-05-10T08:15:58.188Z,1007.57
2018-05-10T08:17:20.836Z,1007.64
2018-05-10T08:18:43.504Z,1007.62
2018-05-10T08:20:05.830Z,1007.63
2018-05-10T08:21:28.399Z,1007.65
2018-05-10T08:22:50.671Z,1007.62
2018-05-10T08:24:13.199Z,1007.64
2018-05-10T08:25:35.802Z,1007.56
2018-05-10T08:26:58.381Z,1007.51
2018-05-10T08:28:20.967Z,1007.46
2018-05-10T08:29:43.549Z,1007.48
2018-05-10T08:31:05.830Z,1007.54
2018-05-10T08:32:28.115Z,1007.49
2018-05-10T08:33:50.614Z,1007.49
2018-05-10T08:35:13.158Z,1007.5
2018-05-10T08:36:35.522Z,1007.55
2018-05-10T08:37:58.660Z,1007.55
2018-05-10T08:39:20.952Z,1007.56
2018-05-10T08:40:43.550Z,1007.58
2018-05-10T08:42:05.472Z,1007.55
2018-05-10T08:43:27.716Z,1007.56
2018-05-10T08:44:50.564Z,1007.54
2018-05-10T08:46:13.403Z,1007.58
2018-05-10T08:47:35.927Z,1007.55
2018-05-10T08:48:58.173Z,1007.63
2018-05-10T08:50:20.759Z,1007.65
2018-05-10T08:51:43.325Z,1007.64
2018-05-10T08:53:06.477Z,1007.66
2018-05-10T08:54:29.122Z,1007.73
2018-05-10T08:55:51.313Z,1007.68
2018-05-10T08:57:13.810Z,1007.74
2018-05-10T08:58:36.080Z,1007.72
2018-05-10T08:59:58.406Z,1007.74
2018-05-10T09:01:20.760Z,1007.75
2018-05-10T09:02:43.292Z,1007.82
2018-05-10T09:04:05.826Z,1007.8
2018-05-10T09:05:28.679Z,1007.85
2018-05-10T09:06:51.275Z,1007.85
2018-05-10T09:08:13.591Z,1007.87
2018-05-10T09:09:36.100Z,1007.94
2018-05-10T09:10:58.077Z,1007.97
2018-05-10T09:12:20.285Z,1008
2018-05-10T09:13:42.414Z,1008.01
2018-05-10T09:15:04.425Z,1007.98
2018-05-10T09:16:27.008Z,1008.02
2018-05-10T09:17:49.272Z,1008.02
2018-05-10T09:19:11.835Z,1007.97
2018-05-10T09:20:34.111Z,1008.05
2018-05-10T09:21:56.366Z,1008.01
2018-05-10T09:23:18.305Z,1008.02
2018-05-10T09:24:40.895Z,1008.06
2018-05-10T09:26:04.111Z,1008.09
2018-05-10T09:27:26.170Z,1008.09
2018-05-10T09:28:48.444Z,1008.14
2018-05-10T09:30:11.084Z,1008.14
2018-05-10T09:31:33.704Z,1008.16
2018-05-10T09:32:56.286Z,1008.21
2018-05-10T09:34:18.691Z,1008.23
2018-05-10T09:35:40.942Z,1008.28
2018-05-10T09:37:03.468Z,1008.31
2018-05-10T09:38:26.024Z,1008.38
2018-05-10T09:39:47.987Z,1008.4
2018-05-10T09:41:10.654Z,1008.45
2018-05-10T09:42:32.627Z,1008.48
2018-05-10T09:43:55.188Z,1008.61
2018-05-10T09:45:17.422Z,1008.59
2018-05-10T09:46:39.985Z,1008.63
2018-05-10T09:48:02.233Z,1008.65
2018-05-10T09:49:24.842Z,1008.71
2018-05-10T09:50:47.057Z,1008.71
2018-05-10T09:52:09.898Z,1008.72
2018-05-10T09:53:31.855Z,1008.74
2018-05-10T09:54:54.428Z,1008.74
2018-05-10T09:56:16.708Z,1008.79
2018-05-10T09:57:39.262Z,1008.76
2018-05-10T09:59:01.512Z,1008.76
2018-05-10T10:00:23.760Z,1008.82
2018-05-10T10:01:46.317Z,1008.82
2018-05-10T10:03:08.534Z,1008.76
2018-05-10T10:04:31.162Z,1008.76
2018-05-10T10:05:53.717Z,1008.76
2018-05-10T10:07:15.787Z,1008.8
2018-05-10T10:08:38.044Z,1008.83
2018-05-10T10:10:00.602Z,1008.88
2018-05-10T10:11:22.542Z,1008.89
2018-05-10T10:12:45.421Z,1008.92
2018-05-10T10:14:07.944Z,1008.94
2018-05-10T10:15:29.904Z,1008.96
2018-05-10T10:16:52.867Z,1008.97
2018-05-10T10:18:15.407Z,1009.01
2018-05-10T10:19:37.623Z,1009.05
2018-05-10T10:21:00.189Z,1009.07
2018-05-10T10:22:22.403Z,1009.11
2018-05-10T10:23:44.754Z,1009.16
2018-05-10T10:25:07.326Z,1009.13
2018-05-10T10:26:30.221Z,1009.11
2018-05-10T10:27:53.043Z,1009.13
2018-05-10T10:29:15.506Z,1009.11
2018-05-10T10:30:37.746Z,1009.1
2018-05-10T10:31:59.984Z,1009.1
2018-05-10T10:33:22.698Z,1009.09
2018-05-10T10:34:44.972Z,1009.1
2018-05-10T10:36:07.321Z,1009.13
2018-05-10T10:37:29.861Z,1009.07
2018-05-10T10:38:52.373Z,1009.02
2018-05-10T10:40:14.440Z,1009.12
2018-05-10T10:41:36.706Z,1009.11
2018-05-10T10:42:59.239Z,1009.21
2018-05-10T10:44:21.480Z,1009.17
2018-05-10T10:45:43.717Z,1009.18
2018-05-10T10:47:06.590Z,1009.15
2018-05-10T10:48:29.166Z,1009.14
2018-05-10T10:49:51.983Z,1009.21
2018-05-10T10:51:14.520Z,1009.19
2018-05-10T10:52:37.148Z,1009.24
2018-05-10T10:54:00.001Z,1009.2
2018-05-10T10:55:22.358Z,1009.26
2018-05-10T10:56:44.382Z,1009.28
2018-05-10T10:58:06.340Z,1009.26
2018-05-10T10:59:28.623Z,1009.33
2018-05-10T11:00:51.266Z,1009.28
2018-05-10T11:02:13.771Z,1009.32
2018-05-10T11:03:35.666Z,1009.37
2018-05-10T11:04:58.341Z,1009.42
2018-05-10T11:06:20.902Z,1009.42
2018-05-10T11:07:42.827Z,1009.5
2018-05-10T11:09:05.451Z,1009.54
2018-05-10T11:10:28.237Z,1009.65
2018-05-10T11:11:50.245Z,1009.64
2018-05-10T11:13:12.495Z,1009.63
2018-05-10T11:14:34.762Z,1009.62
2018-05-10T11:15:56.702Z,1009.71
2018-05-10T11:17:18.939Z,1009.71
2018-05-10T11:18:40.555Z,1009.65
2018-05-10T11:20:03.384Z,1009.72
2018-05-10T11:21:25.628Z,1009.73
2018-05-10T11:22:47.557Z,1009.79
2018-05-10T11:24:09.819Z,1009.92
2018-05-10T11:25:32.368Z,1009.87
2018-05-10T11:26:54.633Z,1009.85
2018-05-10T11:28:16.899Z,1009.92
2018-05-10T11:29:39.226Z,1009.93
2018-05-10T11:31:01.873Z,1010
2018-05-10T11:32:23.852Z,1010.02
2018-05-10T11:33:46.496Z,1010.01
2018-05-10T11:35:09.333Z,1009.96
2018-05-10T11:36:31.916Z,1010.03
2018-05-10T11:37:53.319Z,1010.03
2018-05-10T11:39:15.579Z,1010.04
2018-05-10T11:40:38.155Z,1010.14
2018-05-10T11:42:00.746Z,1010.09
2018-05-10T11:43:23.331Z,1010.13
2018-05-10T11:44:45.869Z,1010.17
2018-05-10T11:46:08.081Z,1010.17
2018-05-10T11:47:30.644Z,1010.18
2018-05-10T11:48:53.220Z,1010.19
2018-05-10T11:50:15.546Z,1010.3
2018-05-10T11:51:37.811Z,1010.28
2018-05-10T11:53:00.331Z,1010.27
2018-05-10T11:54:22.629Z,1010.34
2018-05-10T11:55:44.901Z,1010.31
2018-05-10T11:57:07.467Z,1010.29
2018-05-10T11:58:29.929Z,1010.32
2018-05-10T11:59:52.445Z,1010.38
2018-05-10T12:01:14.435Z,1010.45
2018-05-10T12:02:37.017Z,1010.45
2018-05-10T12:03:59.426Z,1010.53
2018-05-10T12:05:21.388Z,1010.52
2018-05-10T12:06:43.655Z,1010.48
2018-05-10T12:08:06.189Z,1010.45
2018-05-10T12:09:28.766Z,1010.52
2018-05-10T12:10:51.322Z,1010.53
2018-05-10T12:12:12.974Z,1010.54
2018-05-10T12:13:34.918Z,1010.53
2018-05-10T12:14:57.193Z,1010.52
2018-05-10T12:16:19.720Z,1010.62
2018-05-10T12:17:41.966Z,1010.56
2018-05-10T12:19:04.243Z,1010.64
2018-05-10T12:20:26.386Z,1010.6
2018-05-10T12:21:48.693Z,1010.67
2018-05-10T12:23:11.236Z,1010.74
2018-05-10T12:24:33.209Z,1010.73
2018-05-10T12:25:55.470Z,1010.74
2018-05-10T12:27:17.966Z,1010.74
2018-05-10T12:28:40.231Z,1010.76
2018-05-10T12:30:02.663Z,1010.74
2018-05-10T12:31:24.741Z,1010.72
2018-05-10T12:32:47.275Z,1010.69
2018-05-10T12:34:10.045Z,1010.67
2018-05-10T12:35:32.606Z,1010.77
2018-05-10T12:36:54.874Z,1010.84
2018-05-10T12:38:17.443Z,1010.82
2018-05-10T12:39:39.512Z,1010.84
2018-05-10T12:41:01.834Z,1010.82
2018-05-10T12:42:24.351Z,1010.84
2018-05-10T12:43:46.633Z,1010.91
2018-05-10T12:45:09.200Z,1011.08
2018-05-10T12:46:31.439Z,1011.07
2018-05-10T12:47:53.667Z,1011.11
2018-05-10T12:49:15.936Z,1011.14
2018-05-10T12:50:38.171Z,1011.14
2018-05-10T12:52:00.775Z,1011.15
2018-05-10T12:53:22.736Z,1011.2
2018-05-10T12:54:45.229Z,1011.29
2018-05-10T12:56:07.805Z,1011.35
2018-05-10T12:57:30.240Z,1011.3
2018-05-10T12:58:52.211Z,1011.43
2018-05-10T13:00:14.743Z,1011.43
2018-05-10T13:01:36.692Z,1011.4
2018-05-10T13:02:58.947Z,1011.41
2018-05-10T13:04:21.172Z,1011.35
2018-05-10T13:05:43.866Z,1011.46
2018-05-10T13:07:05.473Z,1011.58
2018-05-10T13:08:27.788Z,1011.47
2018-05-10T13:09:50.454Z,1011.56
2018-05-10T13:11:12.660Z,1011.63
2018-05-10T13:12:34.926Z,1011.66
2018-05-10T13:13:57.164Z,1011.61
2018-05-10T13:15:19.143Z,1011.52
2018-05-10T13:16:41.102Z,1011.65
2018-05-10T13:18:03.071Z,1011.7
2018-05-10T13:19:25.083Z,1011.72
2018-05-10T13:20:47.333Z,1011.79
2018-05-10T13:22:09.949Z,1011.76
2018-05-10T13:23:32.130Z,1011.78
2018-05-10T13:24:54.400Z,1011.74
2018-05-10T13:26:16.934Z,1011.9
2018-05-10T13:27:39.507Z,1011.92
2018-05-10T13:29:01.835Z,1012
2018-05-10T13:30:23.737Z,1012.05
2018-05-10T13:31:46.026Z,1012.02
2018-05-10T13:33:08.586Z,1011.96
2018-05-10T13:34:30.870Z,1012.12
2018-05-10T13:35:53.104Z,1012.12
2018-05-10T13:37:15.335Z,1012.17
2018-05-10T13:38:36.960Z,1012.23
2018-05-10T13:39:58.618Z,1012.29
2018-05-10T13:41:20.886Z,1012.3
2018-05-10T13:42:43.116Z,1012.36
2018-05-10T13:44:05.085Z,1012.4
2018-05-10T13:45:27.649Z,1012.43
2018-05-10T13:46:49.822Z,1012.46
2018-05-10T13:48:12.439Z,1012.46
2018-05-10T13:49:34.392Z,1012.45
2018-05-10T13:50:56.883Z,1012.45
2018-05-10T13:52:19.514Z,1012.59
2018-05-10T13:53:42.007Z,1012.58
2018-05-10T13:55:03.958Z,1012.59
2018-05-10T13:56:26.167Z,1012.64
2018-05-10T13:57:48.367Z,1012.67
2018-05-10T13:59:10.894Z,1012.67
2018-05-10T14:00:33.440Z,1012.82
2018-05-10T14:01:56.003Z,1012.88
2018-05-10T14:03:18.267Z,1012.92
2018-05-10T14:04:40.807Z,1012.95
2018-05-10T14:06:03.357Z,1012.99
2018-05-10T14:07:26.099Z,1013.12
2018-05-10T14:08:48.487Z,1013.11
2018-05-10T14:10:10.588Z,1013.17
2018-05-10T14:11:32.706Z,1013.19
2018-05-10T14:12:54.838Z,1013.1
2018-05-10T14:14:16.675Z,1013.17
2018-05-10T14:15:38.543Z,1013.28
2018-05-10T14:17:00.675Z,1013.28
2018-05-10T14:18:22.544Z,1013.3
2018-05-10T14:19:44.442Z,1013.32
2018-05-10T14:21:05.850Z,1013.43
2018-05-10T14:22:28.006Z,1013.4
2018-05-10T14:23:50.129Z,1013.38
2018-05-10T14:25:12.257Z,1013.44
2018-05-10T14:26:34.772Z,1013.39
2018-05-10T14:27:56.623Z,1013.47
2018-05-10T14:29:18.740Z,1013.47
2018-05-10T14:30:40.610Z,1013.49
2018-05-10T14:32:02.439Z,1013.47
2018-05-10T14:33:24.602Z,1013.46
2018-05-10T14:34:46.463Z,1013.47
2018-05-10T14:36:08.581Z,1013.48
2018-05-10T14:37:30.416Z,1013.45
2018-05-10T14:38:52.547Z,1013.5
2018-05-10T14:40:14.663Z,1013.49
2018-05-10T14:41:36.540Z,1013.56
2018-05-10T14:42:58.638Z,1013.51
2018-05-10T14:44:20.758Z,1013.59
2018-05-10T14:45:42.886Z,1013.56
2018-05-10T14:47:05.021Z,1013.58
2018-05-10T14:48:27.142Z,1013.61
2018-05-10T14:49:49.278Z,1013.6
2018-05-10T14:51:11.394Z,1013.64
2018-05-10T14:52:33.504Z,1013.67
2018-05-10T14:53:55.608Z,1013.76
2018-05-10T14:55:17.338Z,1013.8
2018-05-10T14:56:39.437Z,1013.89
2018-05-10T14:58:01.273Z,1013.93
2018-05-10T14:59:23.356Z,1014.01
2018-05-10T15:00:45.613Z,1014.12
2018-05-10T15:02:07.470Z,1014.09
2018-05-10T15:03:29.585Z,1014.09
2018-05-10T15:04:51.413Z,1014.19
2018-05-10T15:06:13.550Z,1014.19
2018-05-10T15:07:35.665Z,1014.25
2018-05-10T15:08:57.500Z,1014.15
2018-05-10T15:10:19.687Z,1014.19
2018-05-10T15:11:41.792Z,1014.25
2018-05-10T15:13:03.653Z,1014.26
2018-05-10T15:14:25.745Z,1014.19
2018-05-10T15:15:47.825Z,1014.23
2018-05-10T15:17:09.927Z,1014.33
2018-05-10T15:18:32.014Z,1014.35
2018-05-10T15:19:53.843Z,1014.36
2018-05-10T15:21:15.713Z,1014.37
2018-05-10T15:22:37.317Z,1014.31
2018-05-10T15:23:59.147Z,1014.39
2018-05-10T15:25:21.246Z,1014.32
2018-05-10T15:26:43.372Z,1014.34
2018-05-10T15:28:05.183Z,1014.4
2018-05-10T15:29:27.029Z,1014.38
2018-05-10T15:30:48.865Z,1014.38
2018-05-10T15:32:10.736Z,1014.38
2018-05-10T15:33:32.860Z,1014.37
2018-05-10T15:34:54.965Z,1014.38
2018-05-10T15:36:16.797Z,1014.44
2018-05-10T15:37:38.878Z,1014.46
2018-05-10T15:39:00.452Z,1014.49
2018-05-10T15:40:22.710Z,1014.47
2018-05-10T15:41:44.613Z,1014.56
2018-05-10T15:43:06.738Z,1014.57
2018-05-10T15:44:28.588Z,1014.63
2018-05-10T15:45:50.485Z,1014.64
2018-05-10T15:47:12.581Z,1014.59
2018-05-10T15:48:34.435Z,1014.67
2018-05-10T15:49:56.278Z,1014.77
2018-05-10T15:51:18.423Z,1014.77
2018-05-10T15:52:40.555Z,1014.82
2018-05-10T15:54:02.430Z,1014.83
2018-05-10T15:55:24.284Z,1014.87
2018-05-10T15:56:46.131Z,1014.88
2018-05-10T15:58:08.225Z,1014.87
2018-05-10T15:59:30.125Z,1014.82
2018-05-10T16:00:52.224Z,1014.77
2018-05-10T16:02:14.063Z,1014.75
2018-05-10T16:03:35.897Z,1014.8
2018-05-10T16:04:58.014Z,1014.88
2018-05-10T16:06:19.583Z,1014.85
2018-05-10T16:07:41.690Z,1014.87
2018-05-10T16:09:03.818Z,1014.92
2018-05-10T16:10:25.937Z,1014.87
2018-05-10T16:11:48.048Z,1014.9
2018-05-10T16:13:10.191Z,1014.83
2018-05-10T16:14:32.305Z,1014.82
2018-05-10T16:15:54.159Z,1014.93
2018-05-10T16:17:15.724Z,1015.01
2018-05-10T16:18:37.529Z,1014.92
2018-05-10T16:19:59.631Z,1015
2018-05-10T16:21:21.715Z,1015.03
2018-05-10T16:22:43.830Z,1015.1
2018-05-10T16:24:05.663Z,1015.16
2018-05-10T16:25:27.773Z,1015.21
2018-05-10T16:26:49.874Z,1015.26
2018-05-10T16:28:11.507Z,1015.28
2018-05-10T16:29:33.593Z,1015.22
2018-05-10T16:30:55.447Z,1015.31
2018-05-10T16:32:17.583Z,1015.31
2018-05-10T16:33:39.835Z,1015.29
2018-05-10T16:35:01.715Z,1015.29
2018-05-10T16:36:23.889Z,1015.34